sensor_id;sensor_type;location;lat;lon;timestamp;temperature;humidity
9509;DHT22;4792;50.088;8.122;2022-09-16T00:01:13;12.60;99.90
9509;DHT22;4792;50.088;8.122;2022-09-16T00:03:42;12.60;99.90
9509;DHT22;4792;50.088;8.122;2022-09-16T00:06:17;12.60;99.90
9509;DHT22;4792;50.088;8.122;2022-09-16T00:08:46;12.50;99.90
9509;DHT22;4792;50.088;8.122;2022-09-16T00:11:14;12.60;99.90
9509;DHT22;4792;50.088;8.122;2022-09-16T00:13:43;12.70;99.90
9509;DHT22;4792;50.088;8.122;2022-09-16T00:16:16;12.70;99.90
9509;DHT22;4792;50.088;8.122;2022-09-16T00:18:45;12.60;99.90
9509;DHT22;4792;50.088;8.122;2022-09-16T00:21:13;12.60;99.90
9509;DHT22;4792;50.088;8.122;2022-09-16T00:23:41;12.60;99.90
9509;DHT22;4792;50.088;8.122;2022-09-16T00:26:09;12.50;99.90
9509;DHT22;4792;50.088;8.122;2022-09-16T00:28:38;12.50;99.90
9509;DHT22;4792;50.088;8.122;2022-09-16T00:31:07;12.50;99.90
9509;DHT22;4792;50.088;8.122;2022-09-16T00:33:36;12.50;99.90
9509;DHT22;4792;50.088;8.122;2022-09-16T00:36:06;12.50;99.90
9509;DHT22;4792;50.088;8.122;2022-09-16T00:38:34;12.50;99.90
9509;DHT22;4792;50.088;8.122;2022-09-16T00:41:03;12.50;99.90
9509;DHT22;4792;50.088;8.122;2022-09-16T00:43:47;12.40;99.90
9509;DHT22;4792;50.088;8.122;2022-09-16T00:46:17;12.40;99.90
9509;DHT22;4792;50.088;8.122;2022-09-16T00:48:48;12.40;99.90
9509;DHT22;4792;50.088;8.122;2022-09-16T00:51:17;12.40;99.90
9509;DHT22;4792;50.088;8.122;2022-09-16T00:53:50;12.40;99.90
9509;DHT22;4792;50.088;8.122;2022-09-16T00:56:24;12.40;99.90
9509;DHT22;4792;50.088;8.122;2022-09-16T00:58:57;12.50;99.90
9509;DHT22;4792;50.088;8.122;2022-09-16T01:01:29;12.50;99.90
9509;DHT22;4792;50.088;8.122;2022-09-16T01:04:03;12.40;99.90
9509;DHT22;4792;50.088;8.122;2022-09-16T01:06:35;12.30;99.90
9509;DHT22;4792;50.088;8.122;2022-09-16T01:09:05;12.30;99.90
9509;DHT22;4792;50.088;8.122;2022-09-16T01:11:33;12.30;99.90
9509;DHT22;4792;50.088;8.122;2022-09-16T01:14:01;12.30;99.90
9509;DHT22;4792;50.088;8.122;2022-09-16T01:16:49;12.40;99.90
9509;DHT22;4792;50.088;8.122;2022-09-16T01:19:42;12.30;99.90
9509;DHT22;4792;50.088;8.122;2022-09-16T01:22:20;12.40;99.90
9509;DHT22;4792;50.088;8.122;2022-09-16T01:24:56;12.30;99.90
9509;DHT22;4792;50.088;8.122;2022-09-16T01:27:47;12.30;99.90
9509;DHT22;4792;50.088;8.122;2022-09-16T01:30:52;12.20;99.90
9509;DHT22;4792;50.088;8.122;2022-09-16T01:33:32;12.20;99.90
9509;DHT22;4792;50.088;8.122;2022-09-16T01:36:21;12.20;99.90
9509;DHT22;4792;50.088;8.122;2022-09-16T01:39:07;12.20;99.90
9509;DHT22;4792;50.088;8.122;2022-09-16T01:41:52;12.10;99.90
9509;DHT22;4792;50.088;8.122;2022-09-16T01:44:27;12.20;99.90
9509;DHT22;4792;50.088;8.122;2022-09-16T01:47:03;12.20;99.90
9509;DHT22;4792;50.088;8.122;2022-09-16T01:49:40;12.10;99.90
9509;DHT22;4792;50.088;8.122;2022-09-16T01:52:17;12.10;99.90
9509;DHT22;4792;50.088;8.122;2022-09-16T01:54:51;12.10;99.90
9509;DHT22;4792;50.088;8.122;2022-09-16T01:57:22;12.20;99.90
9509;DHT22;4792;50.088;8.122;2022-09-16T01:59:57;12.10;99.90
9509;DHT22;4792;50.088;8.122;2022-09-16T02:02:32;12.10;99.90
9509;DHT22;4792;50.088;8.122;2022-09-16T02:05:06;12.00;99.90
9509;DHT22;4792;50.088;8.122;2022-09-16T02:07:39;12.00;99.90
9509;DHT22;4792;50.088;8.122;2022-09-16T02:10:14;12.00;99.90
9509;DHT22;4792;50.088;8.122;2022-09-16T02:12:45;12.00;99.90
9509;DHT22;4792;50.088;8.122;2022-09-16T02:15:17;12.00;99.90
9509;DHT22;4792;50.088;8.122;2022-09-16T02:17:53;12.00;99.90
9509;DHT22;4792;50.088;8.122;2022-09-16T02:20:25;12.00;99.90
9509;DHT22;4792;50.088;8.122;2022-09-16T02:22:57;12.00;99.90
9509;DHT22;4792;50.088;8.122;2022-09-16T02:25:28;11.90;99.90
9509;DHT22;4792;50.088;8.122;2022-09-16T02:28:00;11.90;99.90
9509;DHT22;4792;50.088;8.122;2022-09-16T02:30:29;11.90;99.90
9509;DHT22;4792;50.088;8.122;2022-09-16T02:33:03;11.90;99.90
9509;DHT22;4792;50.088;8.122;2022-09-16T02:35:34;11.90;99.90
9509;DHT22;4792;50.088;8.122;2022-09-16T02:38:08;11.80;99.90
9509;DHT22;4792;50.088;8.122;2022-09-16T02:40:42;11.80;99.90
9509;DHT22;4792;50.088;8.122;2022-09-16T02:43:11;11.90;99.90
9509;DHT22;4792;50.088;8.122;2022-09-16T02:45:45;11.80;99.90
9509;DHT22;4792;50.088;8.122;2022-09-16T02:48:24;11.80;99.90
9509;DHT22;4792;50.088;8.122;2022-09-16T02:51:01;11.80;99.90
9509;DHT22;4792;50.088;8.122;2022-09-16T02:53:38;11.80;99.90
9509;DHT22;4792;50.088;8.122;2022-09-16T02:56:12;11.80;99.90
9509;DHT22;4792;50.088;8.122;2022-09-16T02:58:42;11.80;99.90
9509;DHT22;4792;50.088;8.122;2022-09-16T03:01:12;11.80;99.90
9509;DHT22;4792;50.088;8.122;2022-09-16T03:03:42;11.80;99.90
9509;DHT22;4792;50.088;8.122;2022-09-16T03:06:23;11.80;99.90
9509;DHT22;4792;50.088;8.122;2022-09-16T03:08:53;11.80;99.90
9509;DHT22;4792;50.088;8.122;2022-09-16T03:11:45;11.80;99.90
9509;DHT22;4792;50.088;8.122;2022-09-16T03:14:33;11.70;99.90
9509;DHT22;4792;50.088;8.122;2022-09-16T03:17:14;11.70;99.90
9509;DHT22;4792;50.088;8.122;2022-09-16T03:19:56;11.70;99.90
9509;DHT22;4792;50.088;8.122;2022-09-16T03:22:35;11.70;99.90
9509;DHT22;4792;50.088;8.122;2022-09-16T03:25:12;11.70;99.90
9509;DHT22;4792;50.088;8.122;2022-09-16T03:27:49;11.70;99.90
9509;DHT22;4792;50.088;8.122;2022-09-16T03:30:18;11.70;99.90
9509;DHT22;4792;50.088;8.122;2022-09-16T03:32:51;11.70;99.90
9509;DHT22;4792;50.088;8.122;2022-09-16T03:35:25;11.60;99.90
9509;DHT22;4792;50.088;8.122;2022-09-16T03:37:55;11.60;99.90
9509;DHT22;4792;50.088;8.122;2022-09-16T03:40:26;11.60;99.90
9509;DHT22;4792;50.088;8.122;2022-09-16T03:42:57;11.70;99.90
9509;DHT22;4792;50.088;8.122;2022-09-16T03:45:25;11.70;99.90
9509;DHT22;4792;50.088;8.122;2022-09-16T03:47:53;11.60;99.90
9509;DHT22;4792;50.088;8.122;2022-09-16T03:50:22;11.60;99.90
9509;DHT22;4792;50.088;8.122;2022-09-16T03:52:51;11.60;99.90
9509;DHT22;4792;50.088;8.122;2022-09-16T03:55:19;11.60;99.90
9509;DHT22;4792;50.088;8.122;2022-09-16T03:57:47;11.60;99.90
9509;DHT22;4792;50.088;8.122;2022-09-16T04:00:15;11.60;99.90
9509;DHT22;4792;50.088;8.122;2022-09-16T04:02:43;11.60;99.90
9509;DHT22;4792;50.088;8.122;2022-09-16T04:05:11;11.60;99.90
9509;DHT22;4792;50.088;8.122;2022-09-16T04:07:41;11.60;99.90
9509;DHT22;4792;50.088;8.122;2022-09-16T04:10:09;11.60;99.90
9509;DHT22;4792;50.088;8.122;2022-09-16T04:12:38;11.60;99.90
9509;DHT22;4792;50.088;8.122;2022-09-16T04:15:07;11.60;99.90
9509;DHT22;4792;50.088;8.122;2022-09-16T04:17:35;11.60;99.90
9509;DHT22;4792;50.088;8.122;2022-09-16T04:20:04;11.60;99.90
9509;DHT22;4792;50.088;8.122;2022-09-16T04:22:33;11.60;99.90
9509;DHT22;4792;50.088;8.122;2022-09-16T04:25:03;11.50;99.90
9509;DHT22;4792;50.088;8.122;2022-09-16T04:27:31;11.50;99.90
9509;DHT22;4792;50.088;8.122;2022-09-16T04:29:59;11.50;99.90
9509;DHT22;4792;50.088;8.122;2022-09-16T04:32:27;11.50;99.90
9509;DHT22;4792;50.088;8.122;2022-09-16T04:34:56;11.40;99.90
9509;DHT22;4792;50.088;8.122;2022-09-16T04:37:24;11.40;99.90
9509;DHT22;4792;50.088;8.122;2022-09-16T04:39:52;11.40;99.90
9509;DHT22;4792;50.088;8.122;2022-09-16T04:42:21;11.30;99.90
9509;DHT22;4792;50.088;8.122;2022-09-16T04:44:49;11.40;99.90
9509;DHT22;4792;50.088;8.122;2022-09-16T04:47:17;11.30;99.90
9509;DHT22;4792;50.088;8.122;2022-09-16T04:49:45;11.30;99.90
9509;DHT22;4792;50.088;8.122;2022-09-16T04:52:13;11.30;99.90
9509;DHT22;4792;50.088;8.122;2022-09-16T04:54:42;11.30;99.90
9509;DHT22;4792;50.088;8.122;2022-09-16T04:57:10;11.30;99.90
9509;DHT22;4792;50.088;8.122;2022-09-16T04:59:39;11.30;99.90
9509;DHT22;4792;50.088;8.122;2022-09-16T05:02:07;11.30;99.90
9509;DHT22;4792;50.088;8.122;2022-09-16T05:04:35;11.30;99.90
9509;DHT22;4792;50.088;8.122;2022-09-16T05:07:04;11.30;99.90
9509;DHT22;4792;50.088;8.122;2022-09-16T05:09:32;11.30;99.90
9509;DHT22;4792;50.088;8.122;2022-09-16T05:12:01;11.20;99.90
9509;DHT22;4792;50.088;8.122;2022-09-16T05:14:29;11.30;99.90
9509;DHT22;4792;50.088;8.122;2022-09-16T05:16:58;11.30;99.90
9509;DHT22;4792;50.088;8.122;2022-09-16T05:19:27;11.30;99.90
9509;DHT22;4792;50.088;8.122;2022-09-16T05:21:55;11.30;99.90
9509;DHT22;4792;50.088;8.122;2022-09-16T05:24:23;11.30;99.90
9509;DHT22;4792;50.088;8.122;2022-09-16T05:26:51;11.30;99.90
9509;DHT22;4792;50.088;8.122;2022-09-16T05:29:19;11.20;99.90
9509;DHT22;4792;50.088;8.122;2022-09-16T05:31:47;11.20;99.90
9509;DHT22;4792;50.088;8.122;2022-09-16T05:34:19;11.20;99.90
9509;DHT22;4792;50.088;8.122;2022-09-16T05:36:48;11.20;99.90
9509;DHT22;4792;50.088;8.122;2022-09-16T05:39:16;11.20;99.90
9509;DHT22;4792;50.088;8.122;2022-09-16T05:41:54;11.10;99.90
9509;DHT22;4792;50.088;8.122;2022-09-16T05:44:23;11.20;99.90
9509;DHT22;4792;50.088;8.122;2022-09-16T05:46:52;11.10;99.90
9509;DHT22;4792;50.088;8.122;2022-09-16T05:49:21;11.10;99.90
9509;DHT22;4792;50.088;8.122;2022-09-16T05:51:50;11.10;99.90
9509;DHT22;4792;50.088;8.122;2022-09-16T05:54:19;11.10;99.90
9509;DHT22;4792;50.088;8.122;2022-09-16T05:56:49;11.10;99.90
9509;DHT22;4792;50.088;8.122;2022-09-16T05:59:18;11.10;99.90
9509;DHT22;4792;50.088;8.122;2022-09-16T06:01:46;11.10;99.90
9509;DHT22;4792;50.088;8.122;2022-09-16T06:04:14;11.00;99.90
9509;DHT22;4792;50.088;8.122;2022-09-16T06:06:44;11.00;99.90
9509;DHT22;4792;50.088;8.122;2022-09-16T06:09:14;11.10;99.90
9509;DHT22;4792;50.088;8.122;2022-09-16T06:11:44;11.00;99.90
9509;DHT22;4792;50.088;8.122;2022-09-16T06:14:13;11.10;99.90
9509;DHT22;4792;50.088;8.122;2022-09-16T06:16:42;11.10;99.90
9509;DHT22;4792;50.088;8.122;2022-09-16T06:19:13;11.10;99.90
9509;DHT22;4792;50.088;8.122;2022-09-16T06:21:42;11.10;99.90
9509;DHT22;4792;50.088;8.122;2022-09-16T06:24:12;11.10;99.90
9509;DHT22;4792;50.088;8.122;2022-09-16T06:26:42;11.10;99.90
9509;DHT22;4792;50.088;8.122;2022-09-16T06:29:11;11.10;99.90
9509;DHT22;4792;50.088;8.122;2022-09-16T06:31:40;11.10;99.90
9509;DHT22;4792;50.088;8.122;2022-09-16T06:34:13;11.00;99.90
9509;DHT22;4792;50.088;8.122;2022-09-16T06:36:41;11.00;99.90
9509;DHT22;4792;50.088;8.122;2022-09-16T06:39:13;11.00;99.90
9509;DHT22;4792;50.088;8.122;2022-09-16T06:41:42;11.00;99.90
9509;DHT22;4792;50.088;8.122;2022-09-16T06:44:10;11.10;99.90
9509;DHT22;4792;50.088;8.122;2022-09-16T06:46:38;11.10;99.90
9509;DHT22;4792;50.088;8.122;2022-09-16T06:49:06;11.20;99.90
9509;DHT22;4792;50.088;8.122;2022-09-16T06:51:36;11.50;99.90
9509;DHT22;4792;50.088;8.122;2022-09-16T06:54:06;11.60;99.90
9509;DHT22;4792;50.088;8.122;2022-09-16T06:56:36;11.80;99.90
9509;DHT22;4792;50.088;8.122;2022-09-16T06:59:05;12.00;99.90
9509;DHT22;4792;50.088;8.122;2022-09-16T07:01:34;12.10;99.90
9509;DHT22;4792;50.088;8.122;2022-09-16T07:04:04;12.20;99.90
9509;DHT22;4792;50.088;8.122;2022-09-16T07:06:34;12.30;99.90
9509;DHT22;4792;50.088;8.122;2022-09-16T07:09:22;12.30;99.90
9509;DHT22;4792;50.088;8.122;2022-09-16T07:11:51;12.40;99.90
9509;DHT22;4792;50.088;8.122;2022-09-16T07:14:19;12.50;99.90
9509;DHT22;4792;50.088;8.122;2022-09-16T07:16:48;12.60;99.90
9509;DHT22;4792;50.088;8.122;2022-09-16T07:19:16;12.70;99.90
9509;DHT22;4792;50.088;8.122;2022-09-16T07:21:44;12.90;99.90
9509;DHT22;4792;50.088;8.122;2022-09-16T07:24:13;13.20;99.90
9509;DHT22;4792;50.088;8.122;2022-09-16T07:26:42;13.40;99.90
9509;DHT22;4792;50.088;8.122;2022-09-16T07:29:13;13.30;99.90
9509;DHT22;4792;50.088;8.122;2022-09-16T07:31:41;13.40;99.90
9509;DHT22;4792;50.088;8.122;2022-09-16T07:34:11;13.50;99.90
9509;DHT22;4792;50.088;8.122;2022-09-16T07:36:40;13.50;99.90
9509;DHT22;4792;50.088;8.122;2022-09-16T07:39:10;13.20;99.90
9509;DHT22;4792;50.088;8.122;2022-09-16T07:41:40;13.20;99.90
9509;DHT22;4792;50.088;8.122;2022-09-16T07:44:12;13.20;99.90
9509;DHT22;4792;50.088;8.122;2022-09-16T07:46:41;13.20;99.90
9509;DHT22;4792;50.088;8.122;2022-09-16T07:49:11;13.10;99.90
9509;DHT22;4792;50.088;8.122;2022-09-16T07:51:40;13.20;99.90
9509;DHT22;4792;50.088;8.122;2022-09-16T07:54:11;13.40;99.90
9509;DHT22;4792;50.088;8.122;2022-09-16T07:56:41;13.60;99.90
9509;DHT22;4792;50.088;8.122;2022-09-16T07:59:13;13.80;99.90
9509;DHT22;4792;50.088;8.122;2022-09-16T08:01:45;13.90;99.90
9509;DHT22;4792;50.088;8.122;2022-09-16T08:04:13;14.00;99.90
9509;DHT22;4792;50.088;8.122;2022-09-16T08:06:41;14.00;99.90
9509;DHT22;4792;50.088;8.122;2022-09-16T08:09:09;14.20;99.90
9509;DHT22;4792;50.088;8.122;2022-09-16T08:11:58;14.10;99.90
9509;DHT22;4792;50.088;8.122;2022-09-16T08:14:27;14.20;99.90
9509;DHT22;4792;50.088;8.122;2022-09-16T08:16:56;14.10;99.90
9509;DHT22;4792;50.088;8.122;2022-09-16T08:19:24;14.10;99.90
9509;DHT22;4792;50.088;8.122;2022-09-16T08:21:52;14.20;99.90
9509;DHT22;4792;50.088;8.122;2022-09-16T08:24:20;14.30;99.90
9509;DHT22;4792;50.088;8.122;2022-09-16T08:26:48;14.00;99.90
9509;DHT22;4792;50.088;8.122;2022-09-16T08:29:16;13.80;99.90
9509;DHT22;4792;50.088;8.122;2022-09-16T08:31:46;13.80;99.90
9509;DHT22;4792;50.088;8.122;2022-09-16T08:34:14;14.00;99.90
9509;DHT22;4792;50.088;8.122;2022-09-16T08:36:42;14.40;99.90
9509;DHT22;4792;50.088;8.122;2022-09-16T08:39:11;14.70;99.90
9509;DHT22;4792;50.088;8.122;2022-09-16T08:44:47;15.60;99.90
9509;DHT22;4792;50.088;8.122;2022-09-16T08:47:31;15.70;99.90
9509;DHT22;4792;50.088;8.122;2022-09-16T08:50:05;15.40;99.90
9509;DHT22;4792;50.088;8.122;2022-09-16T08:52:38;15.20;99.90
9509;DHT22;4792;50.088;8.122;2022-09-16T08:55:10;14.70;99.90
9509;DHT22;4792;50.088;8.122;2022-09-16T08:57:41;14.40;99.90
9509;DHT22;4792;50.088;8.122;2022-09-16T09:00:14;14.10;99.90
9509;DHT22;4792;50.088;8.122;2022-09-16T09:02:49;13.90;99.90
9509;DHT22;4792;50.088;8.122;2022-09-16T09:05:26;14.00;99.90
9509;DHT22;4792;50.088;8.122;2022-09-16T09:08:11;13.80;99.90
9509;DHT22;4792;50.088;8.122;2022-09-16T09:10:45;14.10;99.90
9509;DHT22;4792;50.088;8.122;2022-09-16T09:13:33;14.50;99.90
9509;DHT22;4792;50.088;8.122;2022-09-16T09:16:11;14.50;99.90
9509;DHT22;4792;50.088;8.122;2022-09-16T09:18:52;14.40;99.90
9509;DHT22;4792;50.088;8.122;2022-09-16T09:21:29;14.60;99.90
9509;DHT22;4792;50.088;8.122;2022-09-16T09:24:11;14.50;99.90
9509;DHT22;4792;50.088;8.122;2022-09-16T09:26:48;14.50;99.90
9509;DHT22;4792;50.088;8.122;2022-09-16T09:29:46;14.30;99.90
9509;DHT22;4792;50.088;8.122;2022-09-16T09:32:22;14.30;99.90
9509;DHT22;4792;50.088;8.122;2022-09-16T09:35:05;14.30;99.90
9509;DHT22;4792;50.088;8.122;2022-09-16T09:38:04;14.20;99.90
9509;DHT22;4792;50.088;8.122;2022-09-16T09:40:40;14.10;99.90
9509;DHT22;4792;50.088;8.122;2022-09-16T09:43:11;14.10;99.90
9509;DHT22;4792;50.088;8.122;2022-09-16T09:45:44;14.20;99.90
9509;DHT22;4792;50.088;8.122;2022-09-16T09:48:18;14.20;99.90
9509;DHT22;4792;50.088;8.122;2022-09-16T09:50:50;14.20;99.90
9509;DHT22;4792;50.088;8.122;2022-09-16T09:53:23;14.10;99.90
9509;DHT22;4792;50.088;8.122;2022-09-16T09:55:58;14.10;99.90
9509;DHT22;4792;50.088;8.122;2022-09-16T09:58:32;14.30;99.90
9509;DHT22;4792;50.088;8.122;2022-09-16T10:01:01;14.20;99.90
9509;DHT22;4792;50.088;8.122;2022-09-16T10:03:30;14.20;99.90
9509;DHT22;4792;50.088;8.122;2022-09-16T10:06:00;14.00;99.90
9509;DHT22;4792;50.088;8.122;2022-09-16T10:08:33;14.10;99.90
9509;DHT22;4792;50.088;8.122;2022-09-16T10:11:14;14.10;99.90
9509;DHT22;4792;50.088;8.122;2022-09-16T10:13:47;14.30;99.90
9509;DHT22;4792;50.088;8.122;2022-09-16T10:16:17;14.50;99.90
9509;DHT22;4792;50.088;8.122;2022-09-16T10:18:55;14.40;99.90
9509;DHT22;4792;50.088;8.122;2022-09-16T10:21:40;14.40;99.90
9509;DHT22;4792;50.088;8.122;2022-09-16T10:24:28;14.50;99.90
9509;DHT22;4792;50.088;8.122;2022-09-16T10:26:58;14.60;99.90
9509;DHT22;4792;50.088;8.122;2022-09-16T10:29:27;14.70;99.90
9509;DHT22;4792;50.088;8.122;2022-09-16T10:31:55;14.90;99.90
9509;DHT22;4792;50.088;8.122;2022-09-16T10:34:32;15.60;99.90
9509;DHT22;4792;50.088;8.122;2022-09-16T10:37:12;16.20;99.90
9509;DHT22;4792;50.088;8.122;2022-09-16T10:39:43;16.80;99.90
9509;DHT22;4792;50.088;8.122;2022-09-16T10:42:18;16.60;99.90
9509;DHT22;4792;50.088;8.122;2022-09-16T10:44:48;16.30;99.90
9509;DHT22;4792;50.088;8.122;2022-09-16T10:47:20;15.90;99.90
9509;DHT22;4792;50.088;8.122;2022-09-16T10:49:51;15.20;99.90
9509;DHT22;4792;50.088;8.122;2022-09-16T10:52:24;14.90;99.90
9509;DHT22;4792;50.088;8.122;2022-09-16T10:54:53;14.80;99.90
9509;DHT22;4792;50.088;8.122;2022-09-16T10:57:24;14.80;99.90
9509;DHT22;4792;50.088;8.122;2022-09-16T11:00:16;15.00;99.90
9509;DHT22;4792;50.088;8.122;2022-09-16T11:03:00;15.30;99.90
9509;DHT22;4792;50.088;8.122;2022-09-16T11:05:39;15.80;99.90
9509;DHT22;4792;50.088;8.122;2022-09-16T11:08:18;16.00;99.90
9509;DHT22;4792;50.088;8.122;2022-09-16T11:10:54;16.30;99.90
9509;DHT22;4792;50.088;8.122;2022-09-16T11:13:34;16.50;99.90
9509;DHT22;4792;50.088;8.122;2022-09-16T11:16:28;16.60;99.90
9509;DHT22;4792;50.088;8.122;2022-09-16T11:19:06;16.10;99.90
9509;DHT22;4792;50.088;8.122;2022-09-16T11:21:50;15.20;99.90
9509;DHT22;4792;50.088;8.122;2022-09-16T11:27:28;14.10;99.90
9509;DHT22;4792;50.088;8.122;2022-09-16T11:30:08;13.90;99.90
9509;DHT22;4792;50.088;8.122;2022-09-16T11:32:58;13.80;99.90
9509;DHT22;4792;50.088;8.122;2022-09-16T11:35:46;14.00;99.90
9509;DHT22;4792;50.088;8.122;2022-09-16T11:38:28;14.60;99.90
9509;DHT22;4792;50.088;8.122;2022-09-16T11:41:15;15.10;99.90
9509;DHT22;4792;50.088;8.122;2022-09-16T11:46:46;16.30;99.90
9509;DHT22;4792;50.088;8.122;2022-09-16T11:49:28;16.50;99.90
9509;DHT22;4792;50.088;8.122;2022-09-16T11:52:08;16.70;99.90
9509;DHT22;4792;50.088;8.122;2022-09-16T11:55:06;16.50;99.90
9509;DHT22;4792;50.088;8.122;2022-09-16T11:57:45;16.20;99.90
9509;DHT22;4792;50.088;8.122;2022-09-16T12:00:16;15.70;99.90
9509;DHT22;4792;50.088;8.122;2022-09-16T12:02:51;15.50;99.90
9509;DHT22;4792;50.088;8.122;2022-09-16T12:05:22;15.80;99.90
9509;DHT22;4792;50.088;8.122;2022-09-16T12:07:59;15.60;99.90
9509;DHT22;4792;50.088;8.122;2022-09-16T12:10:32;15.90;99.90
9509;DHT22;4792;50.088;8.122;2022-09-16T12:13:07;16.40;99.90
9509;DHT22;4792;50.088;8.122;2022-09-16T12:15:41;16.50;99.90
9509;DHT22;4792;50.088;8.122;2022-09-16T12:18:16;16.50;99.90
9509;DHT22;4792;50.088;8.122;2022-09-16T12:20:48;16.50;99.90
9509;DHT22;4792;50.088;8.122;2022-09-16T12:23:19;16.20;99.90
9509;DHT22;4792;50.088;8.122;2022-09-16T12:25:59;16.30;99.90
9509;DHT22;4792;50.088;8.122;2022-09-16T12:28:35;16.20;99.90
9509;DHT22;4792;50.088;8.122;2022-09-16T12:31:11;16.50;99.90
9509;DHT22;4792;50.088;8.122;2022-09-16T12:33:45;16.30;99.90
9509;DHT22;4792;50.088;8.122;2022-09-16T12:36:21;16.20;99.90
9509;DHT22;4792;50.088;8.122;2022-09-16T12:38:51;16.50;99.90
9509;DHT22;4792;50.088;8.122;2022-09-16T12:41:40;16.50;99.90
9509;DHT22;4792;50.088;8.122;2022-09-16T12:44:31;16.40;99.90
9509;DHT22;4792;50.088;8.122;2022-09-16T12:47:25;16.50;99.90
9509;DHT22;4792;50.088;8.122;2022-09-16T12:50:23;16.60;99.90
9509;DHT22;4792;50.088;8.122;2022-09-16T12:55:59;15.70;99.90
9509;DHT22;4792;50.088;8.122;2022-09-16T12:58:52;15.50;99.90
9509;DHT22;4792;50.088;8.122;2022-09-16T13:01:26;15.60;99.90
9509;DHT22;4792;50.088;8.122;2022-09-16T13:03:59;16.10;99.90
9509;DHT22;4792;50.088;8.122;2022-09-16T13:06:32;17.00;99.90
9509;DHT22;4792;50.088;8.122;2022-09-16T13:09:13;17.50;99.90
9509;DHT22;4792;50.088;8.122;2022-09-16T13:11:52;18.20;99.90
9509;DHT22;4792;50.088;8.122;2022-09-16T13:14:45;18.30;99.90
9509;DHT22;4792;50.088;8.122;2022-09-16T13:17:26;18.00;99.90
9509;DHT22;4792;50.088;8.122;2022-09-16T13:20:01;18.10;99.90
9509;DHT22;4792;50.088;8.122;2022-09-16T13:22:35;18.00;99.90
9509;DHT22;4792;50.088;8.122;2022-09-16T13:25:13;18.20;99.90
9509;DHT22;4792;50.088;8.122;2022-09-16T13:27:54;18.00;99.90
9509;DHT22;4792;50.088;8.122;2022-09-16T13:30:32;17.40;99.90
9509;DHT22;4792;50.088;8.122;2022-09-16T13:33:23;17.20;99.90
9509;DHT22;4792;50.088;8.122;2022-09-16T13:36:16;17.00;99.90
9509;DHT22;4792;50.088;8.122;2022-09-16T13:38:56;16.50;99.90
9509;DHT22;4792;50.088;8.122;2022-09-16T13:41:30;16.60;99.90
9509;DHT22;4792;50.088;8.122;2022-09-16T13:44:00;16.40;99.90
9509;DHT22;4792;50.088;8.122;2022-09-16T13:46:31;16.30;99.90
9509;DHT22;4792;50.088;8.122;2022-09-16T13:49:19;16.10;99.90
9509;DHT22;4792;50.088;8.122;2022-09-16T13:51:49;16.40;99.90
9509;DHT22;4792;50.088;8.122;2022-09-16T13:54:25;16.70;99.90
9509;DHT22;4792;50.088;8.122;2022-09-16T13:57:08;15.90;99.90
9509;DHT22;4792;50.088;8.122;2022-09-16T13:59:51;15.40;99.90
9509;DHT22;4792;50.088;8.122;2022-09-16T14:02:35;15.20;99.90
9509;DHT22;4792;50.088;8.122;2022-09-16T14:05:23;15.10;99.90
9509;DHT22;4792;50.088;8.122;2022-09-16T14:08:01;15.10;99.90
9509;DHT22;4792;50.088;8.122;2022-09-16T14:10:34;14.90;99.90
9509;DHT22;4792;50.088;8.122;2022-09-16T14:13:10;14.70;99.90
9509;DHT22;4792;50.088;8.122;2022-09-16T14:15:41;14.70;99.90
9509;DHT22;4792;50.088;8.122;2022-09-16T14:18:12;14.80;99.90
9509;DHT22;4792;50.088;8.122;2022-09-16T14:20:53;14.70;99.90
9509;DHT22;4792;50.088;8.122;2022-09-16T14:23:23;14.70;99.90
9509;DHT22;4792;50.088;8.122;2022-09-16T14:25:52;14.70;99.90
9509;DHT22;4792;50.088;8.122;2022-09-16T14:28:23;14.80;99.90
9509;DHT22;4792;50.088;8.122;2022-09-16T14:30:54;15.00;99.90
9509;DHT22;4792;50.088;8.122;2022-09-16T14:33:28;15.60;99.90
9509;DHT22;4792;50.088;8.122;2022-09-16T14:35:59;16.10;99.90
9509;DHT22;4792;50.088;8.122;2022-09-16T14:38:32;16.40;99.90
9509;DHT22;4792;50.088;8.122;2022-09-16T14:41:23;16.30;99.90
9509;DHT22;4792;50.088;8.122;2022-09-16T14:43:55;16.30;99.90
9509;DHT22;4792;50.088;8.122;2022-09-16T14:46:26;16.50;99.90
9509;DHT22;4792;50.088;8.122;2022-09-16T14:48:55;16.50;99.90
9509;DHT22;4792;50.088;8.122;2022-09-16T14:51:26;16.20;99.90
9509;DHT22;4792;50.088;8.122;2022-09-16T14:53:56;15.80;99.90
9509;DHT22;4792;50.088;8.122;2022-09-16T14:56:39;15.10;99.90
9509;DHT22;4792;50.088;8.122;2022-09-16T14:59:10;14.40;99.90
9509;DHT22;4792;50.088;8.122;2022-09-16T15:01:40;13.80;99.90
9509;DHT22;4792;50.088;8.122;2022-09-16T15:04:13;13.30;99.90
9509;DHT22;4792;50.088;8.122;2022-09-16T15:06:48;13.00;99.90
9509;DHT22;4792;50.088;8.122;2022-09-16T15:09:24;12.50;99.90
9509;DHT22;4792;50.088;8.122;2022-09-16T15:11:57;12.20;99.90
9509;DHT22;4792;50.088;8.122;2022-09-16T15:14:27;12.20;99.90
9509;DHT22;4792;50.088;8.122;2022-09-16T15:16:58;11.90;99.90
9509;DHT22;4792;50.088;8.122;2022-09-16T15:19:31;11.70;99.90
9509;DHT22;4792;50.088;8.122;2022-09-16T15:22:03;11.80;99.90
9509;DHT22;4792;50.088;8.122;2022-09-16T15:24:38;11.70;99.90
9509;DHT22;4792;50.088;8.122;2022-09-16T15:27:07;11.60;99.90
9509;DHT22;4792;50.088;8.122;2022-09-16T15:29:51;11.80;99.90
9509;DHT22;4792;50.088;8.122;2022-09-16T15:32:21;12.30;99.90
9509;DHT22;4792;50.088;8.122;2022-09-16T15:35:21;12.80;99.90
9509;DHT22;4792;50.088;8.122;2022-09-16T15:37:51;13.30;99.90
9509;DHT22;4792;50.088;8.122;2022-09-16T15:40:31;13.50;99.90
9509;DHT22;4792;50.088;8.122;2022-09-16T15:43:11;13.40;99.90
9509;DHT22;4792;50.088;8.122;2022-09-16T15:45:40;13.60;99.90
9509;DHT22;4792;50.088;8.122;2022-09-16T15:48:16;13.80;99.90
9509;DHT22;4792;50.088;8.122;2022-09-16T15:50:48;14.20;99.90
9509;DHT22;4792;50.088;8.122;2022-09-16T15:53:21;14.50;99.90
9509;DHT22;4792;50.088;8.122;2022-09-16T15:56:05;14.50;99.90
9509;DHT22;4792;50.088;8.122;2022-09-16T15:58:37;14.30;99.90
9509;DHT22;4792;50.088;8.122;2022-09-16T16:01:12;14.20;99.90
9509;DHT22;4792;50.088;8.122;2022-09-16T16:03:53;14.00;99.90
9509;DHT22;4792;50.088;8.122;2022-09-16T16:06:45;13.80;99.90
9509;DHT22;4792;50.088;8.122;2022-09-16T16:09:35;13.90;99.90
9509;DHT22;4792;50.088;8.122;2022-09-16T16:12:07;13.80;99.90
9509;DHT22;4792;50.088;8.122;2022-09-16T16:14:36;13.70;99.90
9509;DHT22;4792;50.088;8.122;2022-09-16T16:17:08;13.70;99.90
9509;DHT22;4792;50.088;8.122;2022-09-16T16:19:41;13.50;99.90
9509;DHT22;4792;50.088;8.122;2022-09-16T16:22:10;13.40;99.90
9509;DHT22;4792;50.088;8.122;2022-09-16T16:24:40;13.60;99.90
9509;DHT22;4792;50.088;8.122;2022-09-16T16:27:09;13.60;99.90
9509;DHT22;4792;50.088;8.122;2022-09-16T16:29:38;13.80;99.90
9509;DHT22;4792;50.088;8.122;2022-09-16T16:32:08;14.10;99.90
9509;DHT22;4792;50.088;8.122;2022-09-16T16:34:38;14.10;99.90
9509;DHT22;4792;50.088;8.122;2022-09-16T16:37:07;13.40;99.90
9509;DHT22;4792;50.088;8.122;2022-09-16T16:39:55;13.40;99.90
9509;DHT22;4792;50.088;8.122;2022-09-16T16:42:25;13.70;99.90
9509;DHT22;4792;50.088;8.122;2022-09-16T16:44:54;13.80;99.90
9509;DHT22;4792;50.088;8.122;2022-09-16T16:47:23;13.60;99.90
9509;DHT22;4792;50.088;8.122;2022-09-16T16:49:52;13.60;99.90
9509;DHT22;4792;50.088;8.122;2022-09-16T16:52:20;13.70;99.90
9509;DHT22;4792;50.088;8.122;2022-09-16T16:54:48;13.70;99.90
9509;DHT22;4792;50.088;8.122;2022-09-16T16:57:19;13.90;99.90